sensor_id;sensor_type;location;lat;lon;timestamp;P1;durP1;ratioP1;P2;durP2;ratioP2
49738;SDS011;53662;50.114;8.626;2024-03-17T00:01:36;8.98;;;3.55;;
49738;SDS011;53662;50.114;8.626;2024-03-17T00:04:02;6.75;;;3.28;;
49738;SDS011;53662;50.114;8.626;2024-03-17T00:06:28;3.60;;;3.25;;
49738;SDS011;53662;50.114;8.626;2024-03-17T00:08:54;6.45;;;3.25;;
49738;SDS011;53662;50.114;8.626;2024-03-17T00:11:20;5.25;;;4.32;;
49738;SDS011;53662;50.114;8.626;2024-03-17T00:13:47;8.02;;;5.25;;
49738;SDS011;53662;50.114;8.626;2024-03-17T00:16:13;4.57;;;3.70;;
49738;SDS011;53662;50.114;8.626;2024-03-17T00:18:42;4.13;;;3.70;;
49738;SDS011;53662;50.114;8.626;2024-03-17T00:21:08;4.18;;;3.78;;
49738;SDS011;53662;50.114;8.626;2024-03-17T00:23:33;3.88;;;3.35;;
49738;SDS011;53662;50.114;8.626;2024-03-17T00:25:59;4.78;;;3.63;;
49738;SDS011;53662;50.114;8.626;2024-03-17T00:28:25;4.45;;;3.40;;
49738;SDS011;53662;50.114;8.626;2024-03-17T00:30:51;6.40;;;4.07;;
49738;SDS011;53662;50.114;8.626;2024-03-17T00:33:17;4.85;;;3.75;;
49738;SDS011;53662;50.114;8.626;2024-03-17T00:35:44;6.78;;;4.13;;
49738;SDS011;53662;50.114;8.626;2024-03-17T00:38:10;5.90;;;3.70;;
49738;SDS011;53662;50.114;8.626;2024-03-17T00:40:39;4.20;;;3.72;;
49738;SDS011;53662;50.114;8.626;2024-03-17T00:43:06;4.30;;;3.50;;
49738;SDS011;53662;50.114;8.626;2024-03-17T00:45:32;4.28;;;3.53;;
49738;SDS011;53662;50.114;8.626;2024-03-17T00:47:58;5.00;;;3.63;;
49738;SDS011;53662;50.114;8.626;2024-03-17T00:50:24;5.63;;;4.20;;
49738;SDS011;53662;50.114;8.626;2024-03-17T00:52:50;9.68;;;3.75;;
49738;SDS011;53662;50.114;8.626;2024-03-17T00:55:16;5.25;;;4.03;;
49738;SDS011;53662;50.114;8.626;2024-03-17T00:57:42;7.18;;;4.50;;
49738;SDS011;53662;50.114;8.626;2024-03-17T01:00:09;6.40;;;3.83;;
49738;SDS011;53662;50.114;8.626;2024-03-17T01:02:36;4.70;;;4.10;;
49738;SDS011;53662;50.114;8.626;2024-03-17T01:05:02;9.02;;;4.60;;
49738;SDS011;53662;50.114;8.626;2024-03-17T01:07:30;6.60;;;4.55;;
49738;SDS011;53662;50.114;8.626;2024-03-17T01:09:56;6.20;;;4.35;;
49738;SDS011;53662;50.114;8.626;2024-03-17T01:12:22;6.93;;;4.53;;
49738;SDS011;53662;50.114;8.626;2024-03-17T01:14:48;4.75;;;4.35;;
49738;SDS011;53662;50.114;8.626;2024-03-17T01:17:14;8.40;;;4.60;;
49738;SDS011;53662;50.114;8.626;2024-03-17T01:19:40;7.88;;;4.15;;
49738;SDS011;53662;50.114;8.626;2024-03-17T01:22:05;5.53;;;4.40;;
49738;SDS011;53662;50.114;8.626;2024-03-17T01:24:32;5.72;;;4.07;;
49738;SDS011;53662;50.114;8.626;2024-03-17T01:26:58;7.55;;;4.10;;
49738;SDS011;53662;50.114;8.626;2024-03-17T01:29:24;9.60;;;4.35;;
49738;SDS011;53662;50.114;8.626;2024-03-17T01:31:50;5.95;;;3.90;;
49738;SDS011;53662;50.114;8.626;2024-03-17T01:34:17;5.05;;;3.67;;
49738;SDS011;53662;50.114;8.626;2024-03-17T01:36:43;6.13;;;4.13;;
49738;SDS011;53662;50.114;8.626;2024-03-17T01:39:09;4.78;;;3.42;;
49738;SDS011;53662;50.114;8.626;2024-03-17T01:41:36;11.65;;;4.20;;
49738;SDS011;53662;50.114;8.626;2024-03-17T01:44:02;9.98;;;3.80;;
49738;SDS011;53662;50.114;8.626;2024-03-17T01:46:28;7.72;;;4.25;;
49738;SDS011;53662;50.114;8.626;2024-03-17T01:48:54;9.77;;;4.22;;
49738;SDS011;53662;50.114;8.626;2024-03-17T01:51:20;4.80;;;4.00;;
49738;SDS011;53662;50.114;8.626;2024-03-17T01:53:47;7.78;;;4.18;;
49738;SDS011;53662;50.114;8.626;2024-03-17T01:56:13;15.07;;;4.38;;
49738;SDS011;53662;50.114;8.626;2024-03-17T01:58:43;12.27;;;4.20;;
49738;SDS011;53662;50.114;8.626;2024-03-17T02:01:10;8.80;;;3.92;;
49738;SDS011;53662;50.114;8.626;2024-03-17T02:03:39;10.77;;;4.18;;
49738;SDS011;53662;50.114;8.626;2024-03-17T02:06:05;5.75;;;3.72;;
49738;SDS011;53662;50.114;8.626;2024-03-17T02:08:45;5.85;;;3.92;;
49738;SDS011;53662;50.114;8.626;2024-03-17T02:11:14;4.28;;;3.78;;
49738;SDS011;53662;50.114;8.626;2024-03-17T02:13:49;4.13;;;3.80;;
49738;SDS011;53662;50.114;8.626;2024-03-17T02:16:15;5.25;;;4.13;;
49738;SDS011;53662;50.114;8.626;2024-03-17T02:18:41;6.22;;;3.72;;
49738;SDS011;53662;50.114;8.626;2024-03-17T02:21:07;6.22;;;4.10;;
49738;SDS011;53662;50.114;8.626;2024-03-17T02:23:34;5.90;;;4.35;;
49738;SDS011;53662;50.114;8.626;2024-03-17T02:26:00;8.32;;;3.97;;
49738;SDS011;53662;50.114;8.626;2024-03-17T02:28:26;6.47;;;4.32;;
49738;SDS011;53662;50.114;8.626;2024-03-17T02:30:52;9.05;;;4.03;;
49738;SDS011;53662;50.114;8.626;2024-03-17T02:33:18;5.05;;;4.10;;
49738;SDS011;53662;50.114;8.626;2024-03-17T02:35:44;8.30;;;4.20;;
49738;SDS011;53662;50.114;8.626;2024-03-17T02:38:14;9.88;;;4.28;;
49738;SDS011;53662;50.114;8.626;2024-03-17T02:41:01;6.20;;;4.20;;
49738;SDS011;53662;50.114;8.626;2024-03-17T02:43:27;5.05;;;3.75;;
49738;SDS011;53662;50.114;8.626;2024-03-17T02:45:52;9.23;;;4.03;;
49738;SDS011;53662;50.114;8.626;2024-03-17T02:48:18;5.68;;;3.67;;
49738;SDS011;53662;50.114;8.626;2024-03-17T02:50:45;5.68;;;3.50;;
49738;SDS011;53662;50.114;8.626;2024-03-17T02:53:11;5.75;;;3.67;;
49738;SDS011;53662;50.114;8.626;2024-03-17T02:55:36;5.85;;;4.07;;
49738;SDS011;53662;50.114;8.626;2024-03-17T02:58:02;5.28;;;4.05;;
49738;SDS011;53662;50.114;8.626;2024-03-17T03:00:28;11.52;;;4.85;;
49738;SDS011;53662;50.114;8.626;2024-03-17T03:02:54;4.85;;;3.83;;
49738;SDS011;53662;50.114;8.626;2024-03-17T03:05:20;7.50;;;3.88;;
49738;SDS011;53662;50.114;8.626;2024-03-17T03:07:46;4.07;;;3.70;;
49738;SDS011;53662;50.114;8.626;2024-03-17T03:10:12;3.67;;;3.38;;
49738;SDS011;53662;50.114;8.626;2024-03-17T03:12:39;7.63;;;4.43;;
49738;SDS011;53662;50.114;8.626;2024-03-17T03:15:05;10.43;;;4.00;;
49738;SDS011;53662;50.114;8.626;2024-03-17T03:17:31;4.07;;;3.70;;
49738;SDS011;53662;50.114;8.626;2024-03-17T03:19:57;8.52;;;3.25;;
49738;SDS011;53662;50.114;8.626;2024-03-17T03:22:23;5.20;;;3.53;;
49738;SDS011;53662;50.114;8.626;2024-03-17T03:24:51;8.02;;;3.70;;
49738;SDS011;53662;50.114;8.626;2024-03-17T03:27:17;4.43;;;3.08;;
49738;SDS011;53662;50.114;8.626;2024-03-17T03:29:43;6.22;;;3.20;;
49738;SDS011;53662;50.114;8.626;2024-03-17T03:32:09;3.92;;;3.60;;
49738;SDS011;53662;50.114;8.626;2024-03-17T03:34:35;10.80;;;3.50;;
49738;SDS011;53662;50.114;8.626;2024-03-17T03:37:01;6.93;;;3.78;;
49738;SDS011;53662;50.114;8.626;2024-03-17T03:39:27;9.55;;;2.90;;
49738;SDS011;53662;50.114;8.626;2024-03-17T03:41:56;5.35;;;3.20;;
49738;SDS011;53662;50.114;8.626;2024-03-17T03:44:22;7.93;;;3.45;;
49738;SDS011;53662;50.114;8.626;2024-03-17T03:46:48;5.07;;;3.80;;
49738;SDS011;53662;50.114;8.626;2024-03-17T03:49:14;7.82;;;3.67;;
49738;SDS011;53662;50.114;8.626;2024-03-17T03:51:40;6.30;;;3.38;;
49738;SDS011;53662;50.114;8.626;2024-03-17T03:54:06;4.32;;;3.85;;
49738;SDS011;53662;50.114;8.626;2024-03-17T03:56:32;6.05;;;3.72;;
49738;SDS011;53662;50.114;8.626;2024-03-17T03:58:59;5.78;;;4.20;;
49738;SDS011;53662;50.114;8.626;2024-03-17T04:01:25;8.20;;;4.80;;
49738;SDS011;53662;50.114;8.626;2024-03-17T04:03:50;7.45;;;4.45;;
49738;SDS011;53662;50.114;8.626;2024-03-17T04:06:17;7.38;;;5.30;;
49738;SDS011;53662;50.114;8.626;2024-03-17T04:08:43;6.72;;;4.63;;
49738;SDS011;53662;50.114;8.626;2024-03-17T04:11:09;4.80;;;4.18;;
49738;SDS011;53662;50.114;8.626;2024-03-17T04:13:36;10.02;;;4.47;;
49738;SDS011;53662;50.114;8.626;2024-03-17T04:16:05;7.72;;;3.90;;
49738;SDS011;53662;50.114;8.626;2024-03-17T04:18:31;5.75;;;3.78;;
49738;SDS011;53662;50.114;8.626;2024-03-17T04:21:01;4.78;;;3.65;;
49738;SDS011;53662;50.114;8.626;2024-03-17T04:23:28;7.88;;;4.68;;
49738;SDS011;53662;50.114;8.626;2024-03-17T04:25:54;5.20;;;4.32;;
49738;SDS011;53662;50.114;8.626;2024-03-17T04:28:20;6.30;;;4.28;;
49738;SDS011;53662;50.114;8.626;2024-03-17T04:30:46;6.32;;;4.55;;
49738;SDS011;53662;50.114;8.626;2024-03-17T04:33:12;6.20;;;3.95;;
49738;SDS011;53662;50.114;8.626;2024-03-17T04:35:39;4.28;;;3.88;;
49738;SDS011;53662;50.114;8.626;2024-03-17T04:38:05;6.38;;;4.00;;
49738;SDS011;53662;50.114;8.626;2024-03-17T04:40:34;4.32;;;3.92;;
49738;SDS011;53662;50.114;8.626;2024-03-17T04:43:01;6.93;;;3.83;;
49738;SDS011;53662;50.114;8.626;2024-03-17T04:45:27;6.85;;;3.63;;
49738;SDS011;53662;50.114;8.626;2024-03-17T04:47:53;4.50;;;3.92;;
49738;SDS011;53662;50.114;8.626;2024-03-17T04:50:18;7.32;;;3.67;;
49738;SDS011;53662;50.114;8.626;2024-03-17T04:52:46;5.85;;;4.03;;
49738;SDS011;53662;50.114;8.626;2024-03-17T04:55:12;4.35;;;4.03;;
49738;SDS011;53662;50.114;8.626;2024-03-17T04:57:38;7.53;;;4.28;;
49738;SDS011;53662;50.114;8.626;2024-03-17T05:00:04;6.50;;;3.65;;
49738;SDS011;53662;50.114;8.626;2024-03-17T05:02:32;5.55;;;3.63;;
49738;SDS011;53662;50.114;8.626;2024-03-17T05:04:58;6.20;;;3.83;;
49738;SDS011;53662;50.114;8.626;2024-03-17T05:07:24;6.88;;;4.10;;
49738;SDS011;53662;50.114;8.626;2024-03-17T05:09:50;4.15;;;3.72;;
49738;SDS011;53662;50.114;8.626;2024-03-17T05:12:16;3.92;;;3.30;;
49738;SDS011;53662;50.114;8.626;2024-03-17T05:14:42;5.45;;;3.88;;
49738;SDS011;53662;50.114;8.626;2024-03-17T05:17:08;8.07;;;4.30;;
49738;SDS011;53662;50.114;8.626;2024-03-17T05:19:34;6.40;;;3.72;;
49738;SDS011;53662;50.114;8.626;2024-03-17T05:22:00;7.40;;;4.18;;
49738;SDS011;53662;50.114;8.626;2024-03-17T05:24:25;10.10;;;4.38;;
49738;SDS011;53662;50.114;8.626;2024-03-17T05:26:51;5.53;;;3.58;;
49738;SDS011;53662;50.114;8.626;2024-03-17T05:29:18;4.68;;;4.20;;
49738;SDS011;53662;50.114;8.626;2024-03-17T05:31:43;5.65;;;4.47;;
49738;SDS011;53662;50.114;8.626;2024-03-17T05:34:09;6.30;;;4.10;;
49738;SDS011;53662;50.114;8.626;2024-03-17T05:36:36;5.50;;;4.32;;
49738;SDS011;53662;50.114;8.626;2024-03-17T05:39:02;6.97;;;3.90;;
49738;SDS011;53662;50.114;8.626;2024-03-17T05:41:28;5.50;;;3.53;;
49738;SDS011;53662;50.114;8.626;2024-03-17T05:43:54;7.78;;;3.60;;
49738;SDS011;53662;50.114;8.626;2024-03-17T05:46:23;5.30;;;4.28;;
49738;SDS011;53662;50.114;8.626;2024-03-17T05:48:50;5.25;;;4.25;;
49738;SDS011;53662;50.114;8.626;2024-03-17T05:51:16;5.47;;;3.75;;
49738;SDS011;53662;50.114;8.626;2024-03-17T05:53:42;6.03;;;3.85;;
49738;SDS011;53662;50.114;8.626;2024-03-17T05:56:11;5.05;;;3.80;;
49738;SDS011;53662;50.114;8.626;2024-03-17T05:58:38;4.22;;;3.90;;
49738;SDS011;53662;50.114;8.626;2024-03-17T06:01:04;4.05;;;3.47;;
49738;SDS011;53662;50.114;8.626;2024-03-17T06:03:32;5.75;;;4.15;;
49738;SDS011;53662;50.114;8.626;2024-03-17T06:06:00;7.88;;;3.90;;
49738;SDS011;53662;50.114;8.626;2024-03-17T06:08:26;4.28;;;3.53;;
49738;SDS011;53662;50.114;8.626;2024-03-17T06:10:52;4.35;;;4.00;;
49738;SDS011;53662;50.114;8.626;2024-03-17T06:13:18;3.80;;;3.45;;
49738;SDS011;53662;50.114;8.626;2024-03-17T06:15:44;4.07;;;3.78;;
49738;SDS011;53662;50.114;8.626;2024-03-17T06:18:12;4.25;;;3.40;;
49738;SDS011;53662;50.114;8.626;2024-03-17T06:20:39;8.32;;;4.05;;
49738;SDS011;53662;50.114;8.626;2024-03-17T06:23:07;7.43;;;4.10;;
49738;SDS011;53662;50.114;8.626;2024-03-17T06:25:40;6.38;;;4.10;;
49738;SDS011;53662;50.114;8.626;2024-03-17T06:28:06;8.30;;;4.13;;
49738;SDS011;53662;50.114;8.626;2024-03-17T06:30:32;9.13;;;4.22;;
49738;SDS011;53662;50.114;8.626;2024-03-17T06:33:00;5.72;;;3.75;;
49738;SDS011;53662;50.114;8.626;2024-03-17T06:35:26;5.38;;;4.07;;
49738;SDS011;53662;50.114;8.626;2024-03-17T06:37:55;3.90;;;3.60;;
49738;SDS011;53662;50.114;8.626;2024-03-17T06:40:24;4.22;;;3.72;;
49738;SDS011;53662;50.114;8.626;2024-03-17T06:42:50;7.03;;;3.85;;
49738;SDS011;53662;50.114;8.626;2024-03-17T06:45:17;9.68;;;4.35;;
49738;SDS011;53662;50.114;8.626;2024-03-17T06:47:45;4.90;;;3.78;;
49738;SDS011;53662;50.114;8.626;2024-03-17T06:50:11;6.40;;;4.13;;
49738;SDS011;53662;50.114;8.626;2024-03-17T06:52:37;6.95;;;4.68;;
49738;SDS011;53662;50.114;8.626;2024-03-17T06:55:03;4.63;;;4.22;;
49738;SDS011;53662;50.114;8.626;2024-03-17T06:57:30;5.10;;;4.47;;
49738;SDS011;53662;50.114;8.626;2024-03-17T06:59:56;15.93;;;5.28;;
49738;SDS011;53662;50.114;8.626;2024-03-17T07:02:21;6.35;;;4.30;;
49738;SDS011;53662;50.114;8.626;2024-03-17T07:04:47;6.20;;;4.50;;
49738;SDS011;53662;50.114;8.626;2024-03-17T07:07:13;6.88;;;4.68;;
49738;SDS011;53662;50.114;8.626;2024-03-17T07:09:40;5.95;;;4.57;;
49738;SDS011;53662;50.114;8.626;2024-03-17T07:12:07;8.65;;;4.72;;
49738;SDS011;53662;50.114;8.626;2024-03-17T07:14:33;5.50;;;5.00;;
49738;SDS011;53662;50.114;8.626;2024-03-17T07:16:59;9.73;;;4.55;;
49738;SDS011;53662;50.114;8.626;2024-03-17T07:19:24;4.82;;;4.35;;
49738;SDS011;53662;50.114;8.626;2024-03-17T07:21:50;7.22;;;4.47;;
49738;SDS011;53662;50.114;8.626;2024-03-17T07:24:16;5.20;;;4.70;;
49738;SDS011;53662;50.114;8.626;2024-03-17T07:26:43;8.82;;;4.50;;
49738;SDS011;53662;50.114;8.626;2024-03-17T07:29:09;6.88;;;3.97;;
49738;SDS011;53662;50.114;8.626;2024-03-17T07:31:35;15.60;;;4.47;;
49738;SDS011;53662;50.114;8.626;2024-03-17T07:34:01;8.82;;;4.32;;
49738;SDS011;53662;50.114;8.626;2024-03-17T07:36:27;5.93;;;4.35;;
49738;SDS011;53662;50.114;8.626;2024-03-17T07:38:53;5.55;;;3.90;;
49738;SDS011;53662;50.114;8.626;2024-03-17T07:41:19;5.38;;;3.95;;
49738;SDS011;53662;50.114;8.626;2024-03-17T07:43:45;4.68;;;3.42;;
49738;SDS011;53662;50.114;8.626;2024-03-17T07:46:12;6.05;;;3.83;;
49738;SDS011;53662;50.114;8.626;2024-03-17T07:48:42;4.15;;;3.42;;
49738;SDS011;53662;50.114;8.626;2024-03-17T07:51:08;4.70;;;3.70;;
49738;SDS011;53662;50.114;8.626;2024-03-17T07:53:35;3.92;;;3.50;;
49738;SDS011;53662;50.114;8.626;2024-03-17T07:56:05;2.70;;;2.60;;
49738;SDS011;53662;50.114;8.626;2024-03-17T07:58:32;3.03;;;2.83;;
49738;SDS011;53662;50.114;8.626;2024-03-17T08:00:59;8.15;;;3.35;;
49738;SDS011;53662;50.114;8.626;2024-03-17T08:03:27;5.13;;;2.78;;
49738;SDS011;53662;50.114;8.626;2024-03-17T08:05:53;7.15;;;3.63;;
49738;SDS011;53662;50.114;8.626;2024-03-17T08:08:19;7.28;;;3.40;;
49738;SDS011;53662;50.114;8.626;2024-03-17T08:10:46;3.13;;;2.92;;
49738;SDS011;53662;50.114;8.626;2024-03-17T08:13:15;4.47;;;3.22;;
49738;SDS011;53662;50.114;8.626;2024-03-17T08:15:44;4.18;;;3.78;;
49738;SDS011;53662;50.114;8.626;2024-03-17T08:18:14;4.15;;;3.10;;
49738;SDS011;53662;50.114;8.626;2024-03-17T08:20:40;3.40;;;2.60;;
49738;SDS011;53662;50.114;8.626;2024-03-17T08:23:08;5.57;;;3.47;;
49738;SDS011;53662;50.114;8.626;2024-03-17T08:25:35;3.55;;;3.28;;
49738;SDS011;53662;50.114;8.626;2024-03-17T08:28:01;3.10;;;2.78;;
49738;SDS011;53662;50.114;8.626;2024-03-17T08:30:27;3.58;;;2.88;;
49738;SDS011;53662;50.114;8.626;2024-03-17T08:32:55;4.45;;;3.25;;
49738;SDS011;53662;50.114;8.626;2024-03-17T08:35:21;7.50;;;3.35;;
49738;SDS011;53662;50.114;8.626;2024-03-17T08:37:47;4.60;;;2.90;;
49738;SDS011;53662;50.114;8.626;2024-03-17T08:40:13;3.38;;;3.00;;
49738;SDS011;53662;50.114;8.626;2024-03-17T08:42:39;4.22;;;2.58;;
49738;SDS011;53662;50.114;8.626;2024-03-17T08:45:05;5.05;;;2.40;;
49738;SDS011;53662;50.114;8.626;2024-03-17T08:47:31;4.07;;;2.60;;
49738;SDS011;53662;50.114;8.626;2024-03-17T08:49:57;5.97;;;2.63;;
49738;SDS011;53662;50.114;8.626;2024-03-17T08:52:28;9.63;;;3.38;;
49738;SDS011;53662;50.114;8.626;2024-03-17T08:54:54;3.83;;;3.08;;
49738;SDS011;53662;50.114;8.626;2024-03-17T08:57:20;3.80;;;2.30;;
49738;SDS011;53662;50.114;8.626;2024-03-17T08:59:46;5.07;;;2.50;;
49738;SDS011;53662;50.114;8.626;2024-03-17T09:02:13;2.22;;;2.03;;
49738;SDS011;53662;50.114;8.626;2024-03-17T09:04:39;5.18;;;2.35;;
49738;SDS011;53662;50.114;8.626;2024-03-17T09:07:05;4.45;;;2.13;;
49738;SDS011;53662;50.114;8.626;2024-03-17T09:09:31;3.70;;;2.28;;
49738;SDS011;53662;50.114;8.626;2024-03-17T09:11:58;4.80;;;2.08;;
49738;SDS011;53662;50.114;8.626;2024-03-17T09:14:24;3.15;;;2.33;;
49738;SDS011;53662;50.114;8.626;2024-03-17T09:16:50;3.65;;;2.03;;
49738;SDS011;53662;50.114;8.626;2024-03-17T09:19:16;3.30;;;2.42;;
49738;SDS011;53662;50.114;8.626;2024-03-17T09:21:42;2.58;;;2.38;;
49738;SDS011;53662;50.114;8.626;2024-03-17T09:24:08;2.47;;;2.28;;
49738;SDS011;53662;50.114;8.626;2024-03-17T09:26:34;4.45;;;2.20;;
49738;SDS011;53662;50.114;8.626;2024-03-17T09:29:01;5.25;;;2.50;;
49738;SDS011;53662;50.114;8.626;2024-03-17T09:31:28;3.95;;;2.45;;
49738;SDS011;53662;50.114;8.626;2024-03-17T09:33:55;6.82;;;2.72;;
49738;SDS011;53662;50.114;8.626;2024-03-17T09:36:21;6.82;;;2.40;;
49738;SDS011;53662;50.114;8.626;2024-03-17T09:38:47;3.10;;;2.13;;
49738;SDS011;53662;50.114;8.626;2024-03-17T09:41:19;13.15;;;6.53;;
49738;SDS011;53662;50.114;8.626;2024-03-17T09:43:46;5.00;;;2.67;;
49738;SDS011;53662;50.114;8.626;2024-03-17T09:46:13;4.22;;;2.22;;
49738;SDS011;53662;50.114;8.626;2024-03-17T09:48:41;3.03;;;1.90;;
49738;SDS011;53662;50.114;8.626;2024-03-17T09:51:08;4.07;;;2.40;;
49738;SDS011;53662;50.114;8.626;2024-03-17T09:53:42;4.57;;;2.47;;
49738;SDS011;53662;50.114;8.626;2024-03-17T09:56:09;2.50;;;2.30;;
49738;SDS011;53662;50.114;8.626;2024-03-17T09:58:36;4.55;;;2.33;;
49738;SDS011;53662;50.114;8.626;2024-03-17T10:01:02;6.13;;;2.60;;
49738;SDS011;53662;50.114;8.626;2024-03-17T10:03:44;7.32;;;2.55;;
49738;SDS011;53662;50.114;8.626;2024-03-17T10:06:11;5.63;;;2.83;;
49738;SDS011;53662;50.114;8.626;2024-03-17T10:11:10;27.08;;;3.67;;
49738;SDS011;53662;50.114;8.626;2024-03-17T10:13:36;3.03;;;2.40;;
49738;SDS011;53662;50.114;8.626;2024-03-17T10:16:02;10.18;;;2.35;;
49738;SDS011;53662;50.114;8.626;2024-03-17T10:18:29;12.45;;;2.72;;
49738;SDS011;53662;50.114;8.626;2024-03-17T10:20:56;6.30;;;2.42;;
49738;SDS011;53662;50.114;8.626;2024-03-17T10:23:25;5.30;;;2.67;;
49738;SDS011;53662;50.114;8.626;2024-03-17T10:25:53;3.72;;;2.40;;
49738;SDS011;53662;50.114;8.626;2024-03-17T10:28:22;9.38;;;2.50;;
49738;SDS011;53662;50.114;8.626;2024-03-17T10:31:06;8.95;;;2.53;;
49738;SDS011;53662;50.114;8.626;2024-03-17T10:33:32;3.25;;;1.90;;
49738;SDS011;53662;50.114;8.626;2024-03-17T10:35:59;2.35;;;1.95;;
49738;SDS011;53662;50.114;8.626;2024-03-17T10:38:26;3.33;;;1.77;;
49738;SDS011;53662;50.114;8.626;2024-03-17T10:40:54;2.22;;;1.48;;
49738;SDS011;53662;50.114;8.626;2024-03-17T10:43:20;1.92;;;1.83;;
49738;SDS011;53662;50.114;8.626;2024-03-17T10:48:19;1.70;;;1.60;;
49738;SDS011;53662;50.114;8.626;2024-03-17T10:50:47;1.73;;;1.60;;
49738;SDS011;53662;50.114;8.626;2024-03-17T10:53:14;2.50;;;1.80;;
49738;SDS011;53662;50.114;8.626;2024-03-17T10:55:50;2.05;;;1.90;;
49738;SDS011;53662;50.114;8.626;2024-03-17T10:58:23;3.13;;;1.80;;
49738;SDS011;53662;50.114;8.626;2024-03-17T11:03:15;3.28;;;1.58;;
49738;SDS011;53662;50.114;8.626;2024-03-17T11:05:42;6.93;;;1.90;;
49738;SDS011;53662;50.114;8.626;2024-03-17T11:08:09;1.85;;;1.75;;
49738;SDS011;53662;50.114;8.626;2024-03-17T11:10:41;3.17;;;2.30;;
49738;SDS011;53662;50.114;8.626;2024-03-17T11:13:23;2.15;;;1.95;;
49738;SDS011;53662;50.114;8.626;2024-03-17T11:15:50;1.83;;;1.73;;
49738;SDS011;53662;50.114;8.626;2024-03-17T11:23:26;2.42;;;1.90;;
49738;SDS011;53662;50.114;8.626;2024-03-17T11:25:53;2.80;;;1.98;;
49738;SDS011;53662;50.114;8.626;2024-03-17T11:31:04;2.38;;;1.70;;
49738;SDS011;53662;50.114;8.626;2024-03-17T11:38:53;3.35;;;2.38;;
49738;SDS011;53662;50.114;8.626;2024-03-17T11:44:23;3.83;;;2.28;;
49738;SDS011;53662;50.114;8.626;2024-03-17T11:49:39;6.38;;;2.45;;
49738;SDS011;53662;50.114;8.626;2024-03-17T11:52:09;3.25;;;2.17;;
49738;SDS011;53662;50.114;8.626;2024-03-17T11:54:36;3.10;;;2.35;;
49738;SDS011;53662;50.114;8.626;2024-03-17T11:57:03;5.18;;;2.55;;
49738;SDS011;53662;50.114;8.626;2024-03-17T11:59:30;3.22;;;2.25;;
49738;SDS011;53662;50.114;8.626;2024-03-17T12:01:56;4.57;;;2.20;;
49738;SDS011;53662;50.114;8.626;2024-03-17T12:04:23;10.45;;;2.30;;
49738;SDS011;53662;50.114;8.626;2024-03-17T12:06:55;4.47;;;2.40;;
49738;SDS011;53662;50.114;8.626;2024-03-17T12:11:50;3.78;;;2.25;;
49738;SDS011;53662;50.114;8.626;2024-03-17T12:14:17;2.42;;;2.22;;
49738;SDS011;53662;50.114;8.626;2024-03-17T12:16:47;3.00;;;2.63;;
49738;SDS011;53662;50.114;8.626;2024-03-17T12:19:14;2.95;;;2.25;;
49738;SDS011;53662;50.114;8.626;2024-03-17T12:21:43;5.03;;;2.60;;
49738;SDS011;53662;50.114;8.626;2024-03-17T12:24:12;3.22;;;2.90;;
49738;SDS011;53662;50.114;8.626;2024-03-17T12:26:39;5.88;;;2.92;;
49738;SDS011;53662;50.114;8.626;2024-03-17T12:29:19;2.72;;;2.53;;
49738;SDS011;53662;50.114;8.626;2024-03-17T12:31:46;3.63;;;2.70;;
49738;SDS011;53662;50.114;8.626;2024-03-17T12:34:12;6.22;;;2.90;;
49738;SDS011;53662;50.114;8.626;2024-03-17T12:36:39;6.82;;;2.85;;
49738;SDS011;53662;50.114;8.626;2024-03-17T12:39:13;4.25;;;3.00;;
49738;SDS011;53662;50.114;8.626;2024-03-17T12:41:43;3.05;;;2.45;;
49738;SDS011;53662;50.114;8.626;2024-03-17T12:44:19;3.75;;;3.08;;
49738;SDS011;53662;50.114;8.626;2024-03-17T12:46:45;3.33;;;3.13;;
49738;SDS011;53662;50.114;8.626;2024-03-17T12:49:11;4.82;;;3.33;;
49738;SDS011;53662;50.114;8.626;2024-03-17T12:51:37;17.42;;;3.75;;
49738;SDS011;53662;50.114;8.626;2024-03-17T12:54:21;5.13;;;3.83;;
49738;SDS011;53662;50.114;8.626;2024-03-17T12:56:48;3.45;;;3.15;;
49738;SDS011;53662;50.114;8.626;2024-03-17T12:59:39;4.22;;;3.10;;
49738;SDS011;53662;50.114;8.626;2024-03-17T13:02:24;3.43;;;3.13;;
49738;SDS011;53662;50.114;8.626;2024-03-17T13:07:51;3.67;;;2.95;;
49738;SDS011;53662;50.114;8.626;2024-03-17T13:10:21;5.55;;;3.17;;
49738;SDS011;53662;50.114;8.626;2024-03-17T13:12:47;6.57;;;4.05;;
49738;SDS011;53662;50.114;8.626;2024-03-17T13:15:14;6.68;;;2.90;;
49738;SDS011;53662;50.114;8.626;2024-03-17T13:17:41;3.28;;;2.72;;
49738;SDS011;53662;50.114;8.626;2024-03-17T13:20:16;4.03;;;2.88;;
49738;SDS011;53662;50.114;8.626;2024-03-17T13:22:42;3.20;;;2.58;;
49738;SDS011;53662;50.114;8.626;2024-03-17T13:25:22;5.88;;;3.30;;
49738;SDS011;53662;50.114;8.626;2024-03-17T13:27:49;3.30;;;3.00;;
49738;SDS011;53662;50.114;8.626;2024-03-17T13:30:16;3.17;;;3.00;;
49738;SDS011;53662;50.114;8.626;2024-03-17T13:32:42;5.95;;;3.28;;
49738;SDS011;53662;50.114;8.626;2024-03-17T13:35:16;4.53;;;3.50;;
49738;SDS011;53662;50.114;8.626;2024-03-17T13:37:47;5.28;;;2.85;;
49738;SDS011;53662;50.114;8.626;2024-03-17T13:40:13;3.42;;;3.20;;
49738;SDS011;53662;50.114;8.626;2024-03-17T13:42:43;3.83;;;2.83;;
49738;SDS011;53662;50.114;8.626;2024-03-17T13:45:15;4.53;;;3.22;;
49738;SDS011;53662;50.114;8.626;2024-03-17T13:47:41;5.07;;;3.47;;
49738;SDS011;53662;50.114;8.626;2024-03-17T13:50:10;4.35;;;2.92;;
49738;SDS011;53662;50.114;8.626;2024-03-17T13:52:37;4.57;;;3.40;;
49738;SDS011;53662;50.114;8.626;2024-03-17T13:55:04;3.55;;;3.25;;
49738;SDS011;53662;50.114;8.626;2024-03-17T13:57:33;5.18;;;3.70;;
49738;SDS011;53662;50.114;8.626;2024-03-17T13:59:59;4.50;;;2.97;;
49738;SDS011;53662;50.114;8.626;2024-03-17T14:02:25;4.38;;;3.50;;
49738;SDS011;53662;50.114;8.626;2024-03-17T14:04:51;5.00;;;3.60;;
49738;SDS011;53662;50.114;8.626;2024-03-17T14:07:17;5.15;;;4.25;;
49738;SDS011;53662;50.114;8.626;2024-03-17T14:09:43;4.20;;;3.80;;
49738;SDS011;53662;50.114;8.626;2024-03-17T14:12:09;4.95;;;3.85;;
49738;SDS011;53662;50.114;8.626;2024-03-17T14:14:35;9.68;;;3.88;;
49738;SDS011;53662;50.114;8.626;2024-03-17T14:17:01;4.30;;;3.67;;
49738;SDS011;53662;50.114;8.626;2024-03-17T14:19:26;7.00;;;4.00;;
49738;SDS011;53662;50.114;8.626;2024-03-17T14:21:52;3.90;;;3.50;;
49738;SDS011;53662;50.114;8.626;2024-03-17T14:24:19;4.60;;;4.13;;
49738;SDS011;53662;50.114;8.626;2024-03-17T14:26:46;5.30;;;3.65;;
49738;SDS011;53662;50.114;8.626;2024-03-17T14:29:11;14.48;;;3.75;;
49738;SDS011;53662;50.114;8.626;2024-03-17T14:31:37;5.72;;;3.72;;
49738;SDS011;53662;50.114;8.626;2024-03-17T14:34:04;4.32;;;3.92;;
49738;SDS011;53662;50.114;8.626;2024-03-17T14:36:33;5.03;;;3.90;;
49738;SDS011;53662;50.114;8.626;2024-03-17T14:38:59;7.28;;;3.95;;
49738;SDS011;53662;50.114;8.626;2024-03-17T14:41:29;5.28;;;3.95;;
49738;SDS011;53662;50.114;8.626;2024-03-17T14:43:55;8.40;;;4.10;;
49738;SDS011;53662;50.114;8.626;2024-03-17T14:46:22;24.05;;;4.88;;
49738;SDS011;53662;50.114;8.626;2024-03-17T14:48:48;7.22;;;3.55;;
49738;SDS011;53662;50.114;8.626;2024-03-17T14:51:15;8.02;;;4.38;;
49738;SDS011;53662;50.114;8.626;2024-03-17T14:53:41;9.10;;;4.38;;
49738;SDS011;53662;50.114;8.626;2024-03-17T14:56:13;4.90;;;4.05;;
49738;SDS011;53662;50.114;8.626;2024-03-17T14:58:42;3.75;;;3.38;;
49738;SDS011;53662;50.114;8.626;2024-03-17T15:01:09;6.15;;;3.70;;
49738;SDS011;53662;50.114;8.626;2024-03-17T15:03:35;5.43;;;3.92;;
49738;SDS011;53662;50.114;8.626;2024-03-17T15:06:01;8.30;;;4.13;;
49738;SDS011;53662;50.114;8.626;2024-03-17T15:08:29;8.43;;;4.30;;
49738;SDS011;53662;50.114;8.626;2024-03-17T15:10:58;7.85;;;4.20;;
49738;SDS011;53662;50.114;8.626;2024-03-17T15:13:24;4.32;;;3.92;;
49738;SDS011;53662;50.114;8.626;2024-03-17T15:15:50;4.30;;;4.00;;
49738;SDS011;53662;50.114;8.626;2024-03-17T15:18:19;4.95;;;4.40;;
49738;SDS011;53662;50.114;8.626;2024-03-17T15:20:50;8.77;;;4.22;;